Time;durP1;ratioP1;P1;durP2;ratioP2;P2;SDS_P1;SDS_P2;PMS_P1;PMS_P2;Temp;Humidity;BMP_temperature;BMP_pressure;BME280_temperature;BME280_humidity;BME280_pressure;Samples;Min_cycle;Max_cycle;Signal;HPM_P1;HPM_P2
2022/03/13 00:02:00;;;;;;;;;;;;;;;-1.14;55.04;100980.97;5052291;28;19931;-36
2022/03/13 00:04:25;;;;;;;;;;;;;;;-1.05;54.15;100976.94;5052097;28;20385;-36
2022/03/13 00:06:51;;;;;;;;;;;;;;;-1.38;54.52;100972.91;5052117;28;19999;-36
2022/03/13 00:09:16;;;;;;;;;;;;;;;-1.55;55.69;100975.75;5052066;28;19915;-37
2022/03/13 00:11:41;;;;;;;;;;;;;;;-1.57;54.57;100968.00;5052061;28;20292;-36
2022/03/13 00:14:10;;;;;;;;;;;;;;;-1.56;54.46;100969.69;5051748;28;19916;-36
2022/03/13 00:16:35;;;;;;;;;;;;;;;-1.51;55.85;100966.78;5051313;28;19909;-36
2022/03/13 00:19:00;;;;;;;;;;;;;;;-1.40;55.58;100965.16;5051259;28;19920;-37
2022/03/13 00:21:26;;;;;;;;;;;;;;;-1.54;56.23;100959.13;5051360;28;19916;-36
2022/03/13 00:23:51;;;;;;;;;;;;;;;-1.57;55.38;100958.38;5051497;28;20015;-36
2022/03/13 00:26:16;;;;;;;;;;;;;;;-1.53;55.20;100951.19;5050954;28;19917;-36
2022/03/13 00:28:42;;;;;;;;;;;;;;;-1.53;55.29;100956.44;5051023;28;19995;-36
2022/03/13 00:31:07;;;;;;;;;;;;;;;-1.75;56.87;100950.84;5050615;28;20292;-36
2022/03/13 00:33:33;;;;;;;;;;;;;;;-1.64;56.54;100948.41;5050862;28;19909;-36
2022/03/13 00:35:58;;;;;;;;;;;;;;;-1.68;55.94;100949.53;5051011;28;19917;-36
2022/03/13 00:38:25;;;;;;;;;;;;;;;-1.58;56.32;100942.81;5050579;28;19970;-36
2022/03/13 00:40:54;;;;;;;;;;;;;;;-1.65;56.32;100947.59;5050690;28;19909;-36
2022/03/13 00:43:20;;;;;;;;;;;;;;;-1.80;56.49;100940.72;5050824;28;20380;-36
2022/03/13 00:45:45;;;;;;;;;;;;;;;-1.67;54.22;100936.41;5050510;28;20474;-36
2022/03/13 00:48:12;;;;;;;;;;;;;;;-1.88;55.72;100948.19;5050751;28;19916;-36
2022/03/13 00:50:37;;;;;;;;;;;;;;;-1.85;54.96;100940.97;5057993;28;19995;-36
2022/03/13 00:53:03;;;;;;;;;;;;;;;-1.88;56.07;100942.97;5070579;28;20002;-35
2022/03/13 00:55:28;;;;;;;;;;;;;;;-1.73;56.37;100948.97;5070563;28;19919;-36
2022/03/13 00:57:53;;;;;;;;;;;;;;;-1.70;56.03;100949.63;5052550;28;20284;-36
2022/03/13 01:00:18;;;;;;;;;;;;;;;-1.97;56.56;100949.56;5052736;28;19909;-36
2022/03/13 01:02:44;;;;;;;;;;;;;;;-2.16;56.03;100945.44;5050838;28;19936;-37
2022/03/13 01:05:10;;;;;;;;;;;;;;;-2.16;57.50;100942.84;5050303;28;19915;-36
2022/03/13 01:07:36;;;;;;;;;;;;;;;-2.08;57.30;100939.78;5050094;28;19909;-36
2022/03/13 01:10:01;;;;;;;;;;;;;;;-2.21;56.83;100934.47;5050603;28;19958;-36
2022/03/13 01:12:27;;;;;;;;;;;;;;;-2.00;57.34;100940.16;5050393;28;20331;-36
2022/03/13 01:14:52;;;;;;;;;;;;;;;-2.07;56.08;100940.63;5050085;28;20003;-36
2022/03/13 01:17:17;;;;;;;;;;;;;;;-2.21;56.60;100937.09;5050299;28;19908;-36
2022/03/13 01:19:43;;;;;;;;;;;;;;;-2.09;56.75;100940.72;5049931;28;20015;-36
2022/03/13 01:22:08;;;;;;;;;;;;;;;-2.14;55.69;100941.94;5050501;28;19920;-36
2022/03/13 01:24:42;;;;;;;;;;;;;;;-2.12;55.92;100940.88;4991028;28;1173793;-36
2022/03/13 01:27:08;;;;;;;;;;;;;;;-2.19;57.25;100944.78;5050934;28;19909;-37
2022/03/13 01:29:34;;;;;;;;;;;;;;;-1.87;56.55;100942.00;5050962;28;19916;-36
2022/03/13 01:32:00;;;;;;;;;;;;;;;-1.78;55.89;100941.44;5050913;28;19909;-36
2022/03/13 01:34:38;;;;;;;;;;;;;;;-2.04;55.20;100937.81;5051000;28;19913;-36
2022/03/13 01:37:04;;;;;;;;;;;;;;;-2.04;57.00;100941.25;5050832;28;20008;-36
2022/03/13 01:39:29;;;;;;;;;;;;;;;-1.96;57.03;100938.22;5050913;28;19919;-35
2022/03/13 01:41:55;;;;;;;;;;;;;;;-2.09;55.33;100935.50;5050723;28;19912;-36
2022/03/13 01:44:20;;;;;;;;;;;;;;;-1.98;56.13;100938.31;5050733;28;19916;-37
2022/03/13 01:46:46;;;;;;;;;;;;;;;-1.89;54.75;100947.31;5050916;28;19920;-36
2022/03/13 01:49:11;;;;;;;;;;;;;;;-1.90;54.96;100947.44;5050699;28;19987;-36
2022/03/13 01:51:36;;;;;;;;;;;;;;;-2.23;55.74;100936.34;5066124;28;20248;-36
2022/03/13 01:54:06;;;;;;;;;;;;;;;-1.93;54.96;100943.22;5070431;28;19996;-36
2022/03/13 01:56:33;;;;;;;;;;;;;;;-1.98;56.60;100935.69;5070568;28;19985;-36
2022/03/13 01:58:58;;;;;;;;;;;;;;;-2.00;54.98;100932.34;5064962;28;19943;-36
2022/03/13 02:01:24;;;;;;;;;;;;;;;-1.77;56.51;100943.16;5050347;28;20015;-36
2022/03/13 02:03:50;;;;;;;;;;;;;;;-1.89;55.70;100934.28;5050276;28;19916;-36
2022/03/13 02:06:15;;;;;;;;;;;;;;;-1.68;55.04;100937.31;5032204;28;19912;-36
2022/03/13 02:08:40;;;;;;;;;;;;;;;-1.98;57.28;100929.63;5050409;28;19909;-37
2022/03/13 02:11:06;;;;;;;;;;;;;;;-1.98;56.54;100930.47;5050235;28;19923;-37
2022/03/13 02:13:36;;;;;;;;;;;;;;;-2.25;55.99;100932.13;5054079;28;19908;-37
2022/03/13 02:16:01;;;;;;;;;;;;;;;-2.30;56.36;100928.94;5053243;28;19963;-36
2022/03/13 02:18:26;;;;;;;;;;;;;;;-2.17;55.74;100930.75;5053207;28;20388;-37
2022/03/13 02:20:52;;;;;;;;;;;;;;;-2.51;55.90;100925.84;5053352;28;20365;-36
2022/03/13 02:23:21;;;;;;;;;;;;;;;-2.34;57.00;100938.75;5053204;28;19917;-36
2022/03/13 02:25:50;;;;;;;;;;;;;;;-2.37;56.30;100925.88;5052960;28;19921;-36
2022/03/13 02:28:17;;;;;;;;;;;;;;;-2.60;56.97;100927.25;5052788;28;19908;-38
2022/03/13 02:30:43;;;;;;;;;;;;;;;-2.73;57.04;100916.69;5053144;28;19947;-36
2022/03/13 02:33:08;;;;;;;;;;;;;;;-2.81;57.19;100916.31;5053321;28;19962;-36
2022/03/13 02:35:33;;;;;;;;;;;;;;;-2.81;58.46;100917.13;5052622;28;19912;-36
2022/03/13 02:37:59;;;;;;;;;;;;;;;-3.20;59.49;100918.50;5052728;28;19912;-36
2022/03/13 02:40:24;;;;;;;;;;;;;;;-3.16;59.56;100920.00;5052488;28;19909;-35
2022/03/13 02:42:52;;;;;;;;;;;;;;;-3.00;59.42;100916.50;5053112;28;19908;-35
2022/03/13 02:45:27;;;;;;;;;;;;;;;-3.33;59.83;100917.50;5052288;28;19913;-36
2022/03/13 02:47:52;;;;;;;;;;;;;;;-3.01;58.80;100926.09;5052100;28;19912;-42
2022/03/13 02:50:18;;;;;;;;;;;;;;;-3.06;59.33;100919.47;5056876;28;19942;-36
2022/03/13 02:52:43;;;;;;;;;;;;;;;-3.22;58.20;100915.13;5072241;28;20021;-35
2022/03/13 02:55:09;;;;;;;;;;;;;;;-3.38;59.31;100917.72;5072401;28;19949;-36
2022/03/13 02:57:35;;;;;;;;;;;;;;;-3.48;60.44;100921.78;5072276;28;20284;-35
2022/03/13 03:00:00;;;;;;;;;;;;;;;-3.51;60.07;100923.72;5058587;28;19909;-36
2022/03/13 03:02:26;;;;;;;;;;;;;;;-3.76;61.34;100919.84;5052385;28;19978;-36
2022/03/13 03:04:54;;;;;;;;;;;;;;;-3.44;60.08;100922.47;5052401;28;19909;-37
2022/03/13 03:07:20;;;;;;;;;;;;;;;-3.39;59.57;100917.81;5052308;28;19999;-36
2022/03/13 03:09:45;;;;;;;;;;;;;;;-3.41;60.62;100919.66;5052307;28;20046;-36
2022/03/13 03:12:10;;;;;;;;;;;;;;;-3.46;60.69;100924.31;5052397;28;19915;-36
2022/03/13 03:14:36;;;;;;;;;;;;;;;-3.43;62.91;100921.50;5052499;28;19924;-36
2022/03/13 03:17:01;;;;;;;;;;;;;;;-3.37;62.45;100924.63;5064332;28;20362;-35
2022/03/13 03:19:26;;;;;;;;;;;;;;;-3.22;62.65;100917.75;5072383;28;20038;-36
2022/03/13 03:21:52;;;;;;;;;;;;;;;-3.13;61.68;100923.34;5072358;28;19966;-36
2022/03/13 03:24:20;;;;;;;;;;;;;;;-3.13;63.25;100911.16;5071184;28;19970;-36
2022/03/13 03:26:46;;;;;;;;;;;;;;;-3.17;62.67;100907.06;5071695;28;19973;-37
2022/03/13 03:29:12;;;;;;;;;;;;;;;-3.31;63.11;100904.38;5070378;28;19908;-37
2022/03/13 03:31:45;;;;;;;;;;;;;;;-3.24;62.59;100900.50;5071844;28;20268;-35
2022/03/13 03:34:12;;;;;;;;;;;;;;;-3.11;61.51;100909.31;5071744;28;19950;-36
2022/03/13 03:36:42;;;;;;;;;;;;;;;-3.13;62.63;100905.94;5071437;28;19943;-36
2022/03/13 03:39:08;;;;;;;;;;;;;;;-3.25;62.66;100909.25;5071681;28;19908;-36
2022/03/13 03:41:34;;;;;;;;;;;;;;;-3.38;63.17;100907.31;5071768;28;19908;-37
2022/03/13 03:43:59;;;;;;;;;;;;;;;-3.24;64.27;100900.50;5071539;28;19916;-37
2022/03/13 03:46:24;;;;;;;;;;;;;;;-3.46;62.46;100899.09;5071602;28;19908;-37
2022/03/13 03:48:50;;;;;;;;;;;;;;;-3.29;63.34;100898.16;5071565;28;19919;-36
2022/03/13 03:51:15;;;;;;;;;;;;;;;-3.19;61.95;100899.31;5071378;28;19916;-36
2022/03/13 03:53:40;;;;;;;;;;;;;;;-3.14;63.43;100899.06;5071685;28;19908;-37
2022/03/13 03:56:06;;;;;;;;;;;;;;;-3.13;63.54;100897.31;5071287;28;20348;-35
2022/03/13 03:58:31;;;;;;;;;;;;;;;-3.09;62.27;100891.00;5071345;28;19995;-36
2022/03/13 04:00:56;;;;;;;;;;;;;;;-3.00;60.84;100896.50;5071434;28;20378;-37
2022/03/13 04:03:22;;;;;;;;;;;;;;;-3.17;62.24;100897.47;5071516;28;19915;-36
2022/03/13 04:05:47;;;;;;;;;;;;;;;-3.02;63.00;100898.38;5071337;28;20047;-37
2022/03/13 04:08:13;;;;;;;;;;;;;;;-2.94;62.44;100895.31;5070680;28;19914;-36
2022/03/13 04:10:38;;;;;;;;;;;;;;;-3.12;62.58;100888.53;5071354;28;19908;-36
2022/03/13 04:13:04;;;;;;;;;;;;;;;-2.95;62.56;100899.69;5071364;28;20018;-37
2022/03/13 04:15:29;;;;;;;;;;;;;;;-3.01;62.39;100888.78;5071190;28;19981;-37
2022/03/13 04:17:55;;;;;;;;;;;;;;;-2.88;60.96;100896.72;5071185;28;20049;-36
2022/03/13 04:20:21;;;;;;;;;;;;;;;-2.65;60.82;100892.78;5071145;28;19909;-36
2022/03/13 04:22:46;;;;;;;;;;;;;;;-2.85;61.55;100894.78;5071072;28;20373;-37
2022/03/13 04:25:12;;;;;;;;;;;;;;;-2.65;60.90;100900.59;5070795;28;19917;-36
2022/03/13 04:27:37;;;;;;;;;;;;;;;-2.64;59.90;100894.47;5052833;28;19941;-36
2022/03/13 04:30:03;;;;;;;;;;;;;;;-2.68;58.97;100898.19;5059426;28;20419;-37
2022/03/13 04:32:29;;;;;;;;;;;;;;;-2.62;60.45;100898.66;5051064;28;20281;-37
2022/03/13 04:34:55;;;;;;;;;;;;;;;-2.63;59.03;100899.59;5050366;28;19913;-37
2022/03/13 04:37:20;;;;;;;;;;;;;;;-2.70;59.57;100898.28;5050660;28;19923;-37
2022/03/13 04:39:47;;;;;;;;;;;;;;;-2.80;60.93;100903.19;5050690;28;20020;-37
2022/03/13 04:42:12;;;;;;;;;;;;;;;-2.67;59.60;100895.47;5050608;28;19909;-36
2022/03/13 04:44:37;;;;;;;;;;;;;;;-2.56;59.89;100900.06;5050322;28;20304;-36
2022/03/13 04:47:03;;;;;;;;;;;;;;;-2.59;59.03;100901.09;5050511;28;19941;-36
2022/03/13 04:49:28;;;;;;;;;;;;;;;-2.83;60.11;100908.56;5050570;28;19909;-36
2022/03/13 04:51:53;;;;;;;;;;;;;;;-2.60;58.63;100907.22;5068585;28;19909;-36
2022/03/13 04:54:19;;;;;;;;;;;;;;;-2.57;59.00;100914.00;5070583;28;19970;-37
2022/03/13 04:56:45;;;;;;;;;;;;;;;-2.65;58.44;100904.03;5070752;28;19908;-36
2022/03/13 04:59:10;;;;;;;;;;;;;;;-2.55;58.12;100909.56;5070665;28;19908;-37
2022/03/13 05:01:36;;;;;;;;;;;;;;;-2.56;58.73;100902.66;5070620;28;19915;-37
2022/03/13 05:04:01;;;;;;;;;;;;;;;-2.42;58.81;100897.50;5070630;28;19909;-37
2022/03/13 05:06:27;;;;;;;;;;;;;;;-2.33;58.02;100900.47;5070678;28;19954;-37
2022/03/13 05:08:52;;;;;;;;;;;;;;;-2.51;57.86;100905.84;5052451;28;19908;-37
2022/03/13 05:11:18;;;;;;;;;;;;;;;-2.36;58.84;100906.72;5070339;28;19915;-36
2022/03/13 05:13:43;;;;;;;;;;;;;;;-2.50;59.07;100909.28;5052218;28;19931;-37
2022/03/13 05:16:08;;;;;;;;;;;;;;;-2.18;59.87;100907.38;5070562;28;19913;-37
2022/03/13 05:18:34;;;;;;;;;;;;;;;-2.11;59.15;100900.84;5070472;28;19950;-37
2022/03/13 05:20:59;;;;;;;;;;;;;;;-2.19;58.38;100900.44;5070752;28;19935;-37
2022/03/13 05:23:25;;;;;;;;;;;;;;;-2.14;58.67;100906.25;5070402;28;19913;-37
2022/03/13 05:25:50;;;;;;;;;;;;;;;-2.12;58.90;100904.38;5070104;28;19916;-37
2022/03/13 05:28:16;;;;;;;;;;;;;;;-1.97;58.77;100908.66;5070379;28;19962;-36
2022/03/13 05:30:42;;;;;;;;;;;;;;;-2.05;59.26;100910.91;5053602;28;19991;-36
2022/03/13 05:33:07;;;;;;;;;;;;;;;-2.11;57.41;100916.50;5050188;28;19931;-36
2022/03/13 05:35:33;;;;;;;;;;;;;;;-2.28;58.22;100912.28;5050120;28;19913;-36
2022/03/13 05:37:58;;;;;;;;;;;;;;;-1.82;57.98;100924.31;5050199;28;19944;-36
2022/03/13 05:40:24;;;;;;;;;;;;;;;-1.63;57.02;100922.22;5050370;28;20397;-37
2022/03/13 05:42:51;;;;;;;;;;;;;;;-1.70;56.69;100930.53;5050042;28;20024;-36
2022/03/13 05:45:19;;;;;;;;;;;;;;;-1.64;57.52;100927.53;5050165;28;19951;-37
2022/03/13 05:47:55;;;;;;;;;;;;;;;-1.74;58.08;100916.00;5052666;28;19982;-36
2022/03/13 05:50:21;;;;;;;;;;;;;;;-2.00;59.14;100913.22;5059164;28;19966;-36
2022/03/13 05:52:47;;;;;;;;;;;;;;;-1.31;67.96;100927.19;5073909;28;19946;-37
2022/03/13 05:55:13;;;;;;;;;;;;;;;0.19;69.10;100923.28;5073581;28;19913;-37
2022/03/13 05:57:39;;;;;;;;;;;;;;;1.02;67.32;100922.59;5053721;28;19912;-37
2022/03/13 06:00:05;;;;;;;;;;;;;;;1.67;60.25;100923.00;5053689;28;20000;-37
2022/03/13 06:02:32;;;;;;;;;;;;;;;1.58;49.30;100913.22;5053745;28;19909;-39
2022/03/13 06:04:57;;;;;;;;;;;;;;;1.13;48.75;100916.56;5053727;28;19913;-37
2022/03/13 06:07:22;;;;;;;;;;;;;;;0.97;48.96;100916.84;5053575;28;19915;-37
2022/03/13 06:09:48;;;;;;;;;;;;;;;0.69;49.67;100923.28;5053374;28;19955;-37
2022/03/13 06:12:15;;;;;;;;;;;;;;;0.26;50.52;100924.53;5054001;28;19909;-37
2022/03/13 06:14:41;;;;;;;;;;;;;;;-0.04;51.70;100925.75;5053443;28;20368;-36
2022/03/13 06:17:06;;;;;;;;;;;;;;;-0.05;51.66;100926.69;5053684;28;19924;-37
2022/03/13 06:19:32;;;;;;;;;;;;;;;0.16;52.24;100926.97;5053448;28;19909;-37
2022/03/13 06:21:57;;;;;;;;;;;;;;;0.54;48.98;100935.69;5053791;28;19917;-37
2022/03/13 06:24:24;;;;;;;;;;;;;;;0.73;47.65;100922.94;5053020;28;20345;-36
2022/03/13 06:26:49;;;;;;;;;;;;;;;1.17;47.62;100921.47;5073368;28;19923;-37
2022/03/13 06:29:15;;;;;;;;;;;;;;;1.25;46.03;100922.69;5073051;28;19930;-37
2022/03/13 06:31:40;;;;;;;;;;;;;;;1.63;45.02;100925.03;5073200;28;19998;-37
2022/03/13 06:34:06;;;;;;;;;;;;;;;1.65;44.77;100927.56;5073107;28;20319;-37
2022/03/13 06:36:31;;;;;;;;;;;;;;;1.89;45.33;100924.84;5072797;28;19912;-35
2022/03/13 06:38:56;;;;;;;;;;;;;;;1.94;46.11;100925.31;5072972;28;19960;-37
2022/03/13 06:41:22;;;;;;;;;;;;;;;2.28;44.69;100933.19;5072969;28;19912;-37
2022/03/13 06:43:48;;;;;;;;;;;;;;;2.60;43.85;100929.81;5072873;28;19909;-37
2022/03/13 06:46:13;;;;;;;;;;;;;;;3.05;42.72;100937.56;5073094;28;19950;-37
2022/03/13 06:48:39;;;;;;;;;;;;;;;3.06;41.63;100934.78;5073180;28;19924;-37
2022/03/13 06:51:04;;;;;;;;;;;;;;;3.28;41.60;100923.34;5072598;28;19908;-36
2022/03/13 06:53:29;;;;;;;;;;;;;;;3.64;40.85;100928.31;5072668;28;19943;-37
2022/03/13 06:55:55;;;;;;;;;;;;;;;3.98;39.99;100928.91;5072422;28;19912;-37
2022/03/13 06:58:20;;;;;;;;;;;;;;;4.65;40.33;100927.44;5072744;28;20008;-37
2022/03/13 07:00:46;;;;;;;;;;;;;;;4.88;38.68;100919.28;5072821;28;20003;-37
2022/03/13 07:03:13;;;;;;;;;;;;;;;5.02;40.35;100923.31;5072539;28;19913;-37
2022/03/13 07:05:39;;;;;;;;;;;;;;;4.96;40.03;100921.25;5072696;28;19960;-38
2022/03/13 07:08:04;;;;;;;;;;;;;;;5.51;39.07;100918.84;5072457;28;20076;-37
2022/03/13 07:10:29;;;;;;;;;;;;;;;5.77;38.40;100912.94;5072560;28;19969;-38
2022/03/13 07:12:57;;;;;;;;;;;;;;;5.80;36.66;100913.47;5072064;28;19912;-38
2022/03/13 07:15:22;;;;;;;;;;;;;;;6.19;37.41;100915.19;5072138;28;20402;-37
2022/03/13 07:17:48;;;;;;;;;;;;;;;6.59;36.81;100917.47;5072234;28;19952;-37
2022/03/13 07:20:15;;;;;;;;;;;;;;;6.67;35.56;100914.09;5066535;28;20406;-37
2022/03/13 07:22:42;;;;;;;;;;;;;;;6.34;35.27;100910.22;5072204;28;20023;-37
2022/03/13 07:25:08;;;;;;;;;;;;;;;6.17;36.36;100915.34;5065821;28;19958;-38
2022/03/13 07:27:33;;;;;;;;;;;;;;;6.52;35.50;100908.47;5052330;28;19908;-37
2022/03/13 07:29:58;;;;;;;;;;;;;;;6.92;34.75;100907.22;5049449;28;19913;-47
2022/03/13 07:32:24;;;;;;;;;;;;;;;7.16;34.82;100903.09;5049471;28;19951;-49
2022/03/13 07:34:49;;;;;;;;;;;;;;;7.40;34.16;100898.00;5051981;28;20329;-51
2022/03/13 07:37:14;;;;;;;;;;;;;;;8.53;33.62;100897.94;5051652;28;20372;-51
2022/03/13 07:39:41;;;;;;;;;;;;;;;9.02;31.65;100897.19;5051880;28;19912;-52
2022/03/13 07:42:06;;;;;;;;;;;;;;;9.19;31.59;100898.88;5051841;28;20277;-51
2022/03/13 07:44:32;;;;;;;;;;;;;;;8.68;30.75;100889.34;5051750;28;19909;-50
2022/03/13 07:46:57;;;;;;;;;;;;;;;8.14;30.94;100893.13;5052000;28;19904;-51
2022/03/13 07:49:22;;;;;;;;;;;;;;;8.13;30.55;100893.28;5051764;28;19973;-51
2022/03/13 07:51:48;;;;;;;;;;;;;;;8.39;30.10;100887.91;5068869;28;19915;-51
2022/03/13 07:54:14;;;;;;;;;;;;;;;9.65;29.31;100881.53;5071784;28;19913;-52
2022/03/13 07:56:40;;;;;;;;;;;;;;;10.03;27.30;100887.06;5071806;28;19908;-51
2022/03/13 07:59:05;;;;;;;;;;;;;;;9.98;27.95;100883.09;5071679;28;19915;-52
2022/03/13 08:01:31;;;;;;;;;;;;;;;9.29;27.24;100879.25;5071608;28;19908;-51
2022/03/13 08:03:56;;;;;;;;;;;;;;;9.84;28.22;100890.94;5071141;28;19912;-52
2022/03/13 08:06:21;;;;;;;;;;;;;;;9.41;27.06;100885.06;5071315;28;19909;-51
2022/03/13 08:08:47;;;;;;;;;;;;;;;9.87;26.34;100891.44;5071191;28;19912;-50
2022/03/13 08:11:12;;;;;;;;;;;;;;;10.08;27.71;100892.72;5070390;28;19942;-48
2022/03/13 08:13:37;;;;;;;;;;;;;;;9.77;27.57;100886.31;5070852;28;19919;-51
2022/03/13 08:16:03;;;;;;;;;;;;;;;10.18;27.53;100894.19;5070518;28;19920;-38
2022/03/13 08:18:29;;;;;;;;;;;;;;;10.02;26.35;100883.59;5070987;28;20019;-37
2022/03/13 08:20:55;;;;;;;;;;;;;;;9.92;26.29;100883.78;5056187;28;19920;-38
2022/03/13 08:23:22;;;;;;;;;;;;;;;10.15;25.85;100886.53;5013852;28;19917;-39
2022/03/13 08:25:47;;;;;;;;;;;;;;;9.58;25.92;100873.41;5031291;28;19933;-38
2022/03/13 08:28:12;;;;;;;;;;;;;;;9.97;25.71;100877.94;5031501;28;19971;-37
2022/03/13 08:30:38;;;;;;;;;;;;;;;10.07;26.49;100875.94;5026639;28;20381;-38
2022/03/13 08:33:05;;;;;;;;;;;;;;;9.82;26.27;100872.50;5031772;28;19939;-38
2022/03/13 08:35:30;;;;;;;;;;;;;;;9.61;26.80;100865.09;5048659;28;19917;-38
2022/03/13 08:37:55;;;;;;;;;;;;;;;9.72;26.11;100874.53;5050942;28;19962;-37
2022/03/13 08:40:24;;;;;;;;;;;;;;;9.97;26.18;100872.63;5050954;28;19909;-38
2022/03/13 08:42:50;;;;;;;;;;;;;;;10.05;25.78;100861.97;5050808;28;20289;-38
2022/03/13 08:45:15;;;;;;;;;;;;;;;9.97;26.72;100869.97;5050675;28;19909;-39
2022/03/13 08:47:41;;;;;;;;;;;;;;;10.24;25.26;100863.38;5050625;28;19909;-37
2022/03/13 08:50:06;;;;;;;;;;;;;;;10.19;24.86;100863.06;5054285;28;19912;-38
2022/03/13 08:52:32;;;;;;;;;;;;;;;10.28;24.42;100855.88;5070567;28;20364;-37
2022/03/13 08:54:57;;;;;;;;;;;;;;;10.39;24.23;100863.50;5070640;28;19916;-37
2022/03/13 08:57:22;;;;;;;;;;;;;;;9.66;25.41;100861.94;5063925;28;19912;-37
2022/03/13 08:59:47;;;;;;;;;;;;;;;10.13;25.25;100858.47;5050741;28;19909;-37
2022/03/13 09:02:13;;;;;;;;;;;;;;;10.31;24.78;100856.38;5050355;28;19959;-38
2022/03/13 09:04:41;;;;;;;;;;;;;;;10.72;24.33;100844.69;5050495;28;19917;-38
2022/03/13 09:07:06;;;;;;;;;;;;;;;11.20;23.88;100845.28;5050347;28;19912;-37
2022/03/13 09:09:32;;;;;;;;;;;;;;;10.86;24.98;100846.53;5050428;28;19915;-38
2022/03/13 09:11:58;;;;;;;;;;;;;;;10.05;25.66;100839.84;5050250;28;20004;-38
2022/03/13 09:14:23;;;;;;;;;;;;;;;10.15;25.21;100840.50;5050470;28;19920;-38
2022/03/13 09:16:48;;;;;;;;;;;;;;;10.61;25.66;100837.09;5050496;28;19909;-50
2022/03/13 09:19:14;;;;;;;;;;;;;;;10.65;25.51;100835.72;5050472;28;20350;-52
2022/03/13 09:21:39;;;;;;;;;;;;;;;11.15;24.83;100829.81;5050781;28;19966;-50
2022/03/13 09:24:06;;;;;;;;;;;;;;;11.92;22.81;100834.03;5054070;28;19912;-49
2022/03/13 09:26:34;;;;;;;;;;;;;;;11.26;23.34;100823.22;5053896;28;20003;-51
2022/03/13 09:28:59;;;;;;;;;;;;;;;10.99;23.81;100819.31;5054512;28;19974;-49
2022/03/13 09:31:25;;;;;;;;;;;;;;;10.92;24.10;100829.84;5054100;28;20388;-51
2022/03/13 09:33:50;;;;;;;;;;;;;;;10.40;24.37;100827.09;5053874;28;19916;-47
2022/03/13 09:36:15;;;;;;;;;;;;;;;10.32;24.33;100819.97;5053853;28;19920;-51
2022/03/13 09:38:40;;;;;;;;;;;;;;;10.21;24.77;100817.69;5054148;28;19946;-49
2022/03/13 09:41:06;;;;;;;;;;;;;;;11.53;22.96;100813.78;5054041;28;19908;-49
2022/03/13 09:43:31;;;;;;;;;;;;;;;11.18;22.60;100810.00;5053973;28;19992;-51
2022/03/13 09:45:56;;;;;;;;;;;;;;;10.50;23.03;100812.53;5053930;28;19956;-50
2022/03/13 09:48:22;;;;;;;;;;;;;;;10.23;23.96;100808.50;5053974;28;19951;-48
2022/03/13 09:50:47;;;;;;;;;;;;;;;10.20;23.89;100810.69;5062403;28;19916;-51
2022/03/13 09:53:13;;;;;;;;;;;;;;;10.42;23.52;100812.59;5073463;28;19909;-52
2022/03/13 09:55:39;;;;;;;;;;;;;;;10.44;23.61;100809.75;5073217;28;19913;-48
2022/03/13 09:58:05;;;;;;;;;;;;;;;11.33;23.04;100805.50;5072791;28;19912;-49
2022/03/13 10:00:31;;;;;;;;;;;;;;;11.20;22.98;100796.50;5057861;28;19999;-52
2022/03/13 10:02:57;;;;;;;;;;;;;;;10.66;23.04;100789.47;5052964;28;19954;-48
2022/03/13 10:05:22;;;;;;;;;;;;;;;10.24;23.16;100801.34;5053273;28;19919;-50
2022/03/13 10:07:58;;;;;;;;;;;;;;;10.60;22.74;100790.19;5052586;28;19935;-48
2022/03/13 10:10:25;;;;;;;;;;;;;;;10.65;23.14;100795.81;5053047;28;20042;-48
2022/03/13 10:12:50;;;;;;;;;;;;;;;11.35;20.60;100790.16;5052955;28;19927;-48
2022/03/13 10:15:16;;;;;;;;;;;;;;;11.82;21.12;100784.63;5053133;28;19912;-49
2022/03/13 10:17:42;;;;;;;;;;;;;;;11.89;22.59;100782.88;5053339;28;20353;-49
2022/03/13 10:20:16;;;;;;;;;;;;;;;11.35;26.30;100789.34;5053141;28;19912;-50
2022/03/13 10:22:42;;;;;;;;;;;;;;;11.71;24.98;100781.41;5053154;28;19917;-51
2022/03/13 10:25:07;;;;;;;;;;;;;;;11.90;21.29;100780.03;5053073;28;19960;-49
2022/03/13 10:27:34;;;;;;;;;;;;;;;12.00;25.14;100782.41;5052851;28;19947;-49
2022/03/13 10:30:04;;;;;;;;;;;;;;;12.23;28.71;100782.25;5052351;28;20426;-51
2022/03/13 10:32:30;;;;;;;;;;;;;;;13.05;20.57;100772.91;5052582;28;20372;-48
2022/03/13 10:35:01;;;;;;;;;;;;;;;12.49;20.19;100763.03;5052745;28;19942;-51
2022/03/13 10:37:40;;;;;;;;;;;;;;;11.70;21.13;100774.41;5053009;28;20003;-50
2022/03/13 10:40:21;;;;;;;;;;;;;;;12.43;19.85;100758.44;5053412;28;19992;-47
2022/03/13 10:42:48;;;;;;;;;;;;;;;12.08;19.88;100752.94;5053376;28;19909;-49
2022/03/13 10:45:36;;;;;;;;;;;;;;;11.77;20.51;100757.69;5052929;28;19912;-48
2022/03/13 10:48:15;;;;;;;;;;;;;;;10.88;21.35;100751.31;5052429;28;19936;-49
2022/03/13 10:50:45;;;;;;;;;;;;;;;10.70;20.93;100749.00;5060903;28;20101;-48
2022/03/13 10:53:12;;;;;;;;;;;;;;;10.98;22.54;100744.91;5072613;28;19962;-51
2022/03/13 10:55:38;;;;;;;;;;;;;;;11.30;21.41;100749.06;5072629;28;19959;-48
2022/03/13 10:58:03;;;;;;;;;;;;;;;12.39;20.40;100746.47;5072344;28;19940;-49
2022/03/13 11:00:29;;;;;;;;;;;;;;;12.26;20.16;100731.19;5072362;28;20372;-49
2022/03/13 11:03:07;;;;;;;;;;;;;;;11.98;20.01;100736.44;5072770;28;19909;-50
2022/03/13 11:05:33;;;;;;;;;;;;;;;11.07;20.75;100731.34;5072206;28;20372;-51
2022/03/13 11:07:58;;;;;;;;;;;;;;;11.47;19.59;100729.22;5072376;28;19991;-51
2022/03/13 11:10:23;;;;;;;;;;;;;;;11.43;19.85;100727.13;5072530;28;19947;-49
2022/03/13 11:12:50;;;;;;;;;;;;;;;11.50;20.07;100722.72;5072317;28;19957;-38
2022/03/13 11:15:16;;;;;;;;;;;;;;;11.71;19.86;100725.44;5072250;28;20287;-38
2022/03/13 11:17:43;;;;;;;;;;;;;;;11.87;19.77;100724.38;5072443;28;20452;-38
2022/03/13 11:20:09;;;;;;;;;;;;;;;11.65;20.45;100720.84;5072495;28;19930;-38
2022/03/13 11:22:35;;;;;;;;;;;;;;;11.62;19.92;100717.72;5072281;28;20302;-36
2022/03/13 11:25:03;;;;;;;;;;;;;;;11.34;20.75;100708.53;5072094;28;19927;-38
2022/03/13 11:27:33;;;;;;;;;;;;;;;11.40;20.81;100706.16;5072240;28;19918;-38
2022/03/13 11:29:59;;;;;;;;;;;;;;;11.09;20.90;100705.34;5060352;28;20058;-38
2022/03/13 11:32:27;;;;;;;;;;;;;;;10.89;19.92;100696.22;5052015;28;20375;-38
2022/03/13 11:35:08;;;;;;;;;;;;;;;11.48;20.15;100701.56;5051774;28;20115;-37
2022/03/13 11:37:33;;;;;;;;;;;;;;;11.42;20.84;100702.28;5051966;28;19909;-38
2022/03/13 11:39:59;;;;;;;;;;;;;;;10.99;21.78;100706.63;5051382;28;19916;-38
2022/03/13 11:42:24;;;;;;;;;;;;;;;10.93;22.57;100706.34;5051697;28;19908;-38
2022/03/13 11:44:50;;;;;;;;;;;;;;;11.23;21.43;100703.72;5051185;28;19919;-38
2022/03/13 11:47:23;;;;;;;;;;;;;;;11.29;21.62;100705.63;5051705;28;20387;-38
2022/03/13 11:49:48;;;;;;;;;;;;;;;12.16;19.96;100701.31;5052439;28;19997;-38
2022/03/13 11:52:16;;;;;;;;;;;;;;;11.06;19.67;100695.06;5052402;28;19948;-37
2022/03/13 11:54:52;;;;;;;;;;;;;;;10.60;19.72;100692.50;5048822;28;19919;-37
2022/03/13 11:57:18;;;;;;;;;;;;;;;10.70;21.36;100694.91;5051470;28;19950;-37
2022/03/13 11:59:48;;;;;;;;;;;;;;;10.18;21.98;100685.84;5051325;28;19908;-38
2022/03/13 12:02:34;;;;;;;;;;;;;;;11.42;20.28;100696.13;5051341;28;19991;-37
2022/03/13 12:05:19;;;;;;;;;;;;;;;11.46;19.98;100694.75;5050836;28;19908;-37
2022/03/13 12:08:04;;;;;;;;;;;;;;;10.56;20.12;100683.25;5033477;28;19909;-37
2022/03/13 12:10:32;;;;;;;;;;;;;;;10.31;21.08;100682.63;5051344;28;19916;-37
2022/03/13 12:13:05;;;;;;;;;;;;;;;10.33;20.92;100672.63;5051252;28;19912;-38
2022/03/13 12:15:30;;;;;;;;;;;;;;;10.44;19.33;100682.84;5051104;28;19920;-37
2022/03/13 12:17:57;;;;;;;;;;;;;;;11.40;19.95;100680.31;5051260;28;20349;-48
2022/03/13 12:20:24;;;;;;;;;;;;;;;12.32;19.37;100677.03;5051020;28;19909;-50
2022/03/13 12:22:53;;;;;;;;;;;;;;;11.64;17.90;100671.19;5050928;28;19951;-49
2022/03/13 12:25:21;;;;;;;;;;;;;;;11.02;17.63;100677.78;5050946;28;20389;-50
2022/03/13 12:27:47;;;;;;;;;;;;;;;10.54;17.94;100664.78;5050411;28;20388;-50
2022/03/13 12:30:12;;;;;;;;;;;;;;;10.04;18.42;100663.50;5050387;28;19940;-51
2022/03/13 12:32:38;;;;;;;;;;;;;;;10.69;18.00;100666.66;5050526;28;20607;-38
2022/03/13 12:35:04;;;;;;;;;;;;;;;11.38;18.47;100665.53;5050180;28;20332;-37